Time;durP1;ratioP1;P1;durP2;ratioP2;P2;SDS_P1;SDS_P2;PMS_P1;PMS_P2;Temp;Humidity;BMP_temperature;BMP_pressure;BME280_temperature;BME280_humidity;BME280_pressure;Samples;Min_cycle;Max_cycle;Signal;HPM_P1;HPM_P2
2024/02/02 00:01:14;;;;;;;28.15;13.30;;;;;;;10.60;64.12;96394.59;6192944;23;20018;-87
2024/02/02 00:08:50;;;;;;;24.17;12.73;;;;;;;10.52;64.30;96396.16;6243749;22;20042;-87
2024/02/02 00:19:02;;;;;;;28.13;13.45;;;;;;;10.48;64.20;96388.78;6243310;22;21180;-87
2024/02/02 00:21:27;;;;;;;24.85;12.90;;;;;;;10.43;64.70;96389.22;6169101;23;20024;-87
2024/02/02 00:23:53;;;;;;;21.00;11.90;;;;;;;10.57;64.24;96400.91;6218196;23;20007;-86
2024/02/02 00:26:18;;;;;;;16.63;10.40;;;;;;;10.52;64.33;96398.75;6193442;23;20015;-86
2024/02/02 00:28:44;;;;;;;22.83;13.05;;;;;;;10.52;64.02;96387.53;6218524;23;20011;-87
2024/02/02 00:33:37;;;;;;;20.35;11.25;;;;;;;10.40;64.40;96379.13;6232000;22;20020;-87
2024/02/02 00:36:06;;;;;;;22.75;12.73;;;;;;;10.47;64.69;96397.56;6218147;23;20050;-87
2024/02/02 00:38:31;;;;;;;27.55;14.23;;;;;;;10.50;64.44;96379.06;6218078;23;20008;-87
2024/02/02 00:53:53;;;;;;;17.02;10.95;;;;;;;10.56;64.25;96410.47;6189921;22;20031;-87
2024/02/02 00:56:20;;;;;;;22.02;11.85;;;;;;;10.49;64.05;96393.84;6188142;23;20008;-85
2024/02/02 00:58:46;;;;;;;20.38;10.45;;;;;;;10.67;63.63;96404.25;6188153;23;20011;-87
2024/02/02 01:01:11;;;;;;;20.58;10.65;;;;;;;10.59;64.11;96409.38;6188062;23;20009;-86
2024/02/02 01:06:03;;;;;;;15.65;9.38;;;;;;;10.56;64.10;96407.88;6181745;23;20027;-87
2024/02/02 01:08:28;;;;;;;17.92;9.10;;;;;;;10.55;64.12;96423.66;6212871;23;20027;-86
2024/02/02 01:10:56;;;;;;;10.18;7.30;;;;;;;10.51;64.33;96406.72;6213147;23;20063;-86
2024/02/02 01:13:22;;;;;;;15.68;9.20;;;;;;;10.63;63.91;96430.72;6213320;23;20004;-86
2024/02/02 01:15:47;;;;;;;17.02;9.27;;;;;;;10.57;63.90;96416.53;6212591;23;20015;-87
2024/02/02 01:18:14;;;;;;;15.73;8.43;;;;;;;10.52;64.19;96431.75;6212365;23;20085;-86
2024/02/02 01:20:42;;;;;;;17.77;9.80;;;;;;;10.53;63.73;96436.81;6213252;23;20012;-86
2024/02/02 01:23:07;;;;;;;15.27;9.02;;;;;;;10.55;63.88;96426.25;6213501;23;20012;-86
2024/02/02 01:25:33;;;;;;;14.73;8.23;;;;;;;10.50;63.65;96431.88;6187692;23;20004;-86
2024/02/02 01:27:59;;;;;;;15.57;8.45;;;;;;;10.53;63.54;96430.81;6213114;23;20021;-86
2024/02/02 01:32:50;;;;;;;17.13;9.40;;;;;;;10.67;63.53;96440.69;6236523;22;20024;-87
2024/02/02 01:35:19;;;;;;;14.75;8.63;;;;;;;10.54;63.87;96442.81;6192109;23;20016;-87
2024/02/02 01:37:44;;;;;;;13.38;8.18;;;;;;;10.58;63.88;96449.38;6193316;23;20090;-87
2024/02/02 01:42:36;;;;;;;14.55;9.02;;;;;;;10.57;63.42;96440.75;6186347;23;20031;-86
2024/02/02 01:45:02;;;;;;;18.05;9.40;;;;;;;10.59;63.27;96445.81;6162322;23;20068;-86
2024/02/02 01:47:29;;;;;;;20.70;10.60;;;;;;;10.47;64.08;96447.81;6212615;23;20007;-86
2024/02/02 01:49:55;;;;;;;20.20;10.48;;;;;;;10.40;64.08;96445.94;6187314;23;20004;-86
2024/02/02 01:54:56;;;;;;;14.73;8.50;;;;;;;10.41;63.96;96432.75;6243032;22;20022;-87
2024/02/02 01:57:22;;;;;;;20.05;10.05;;;;;;;10.62;63.48;96450.69;6217530;23;20011;-87
2024/02/02 01:59:51;;;;;;;23.85;11.00;;;;;;;10.50;63.79;96444.91;6191633;23;20008;-86
2024/02/02 02:02:17;;;;;;;18.08;9.82;;;;;;;10.54;63.80;96446.22;6218322;23;20026;-86
2024/02/02 02:07:18;;;;;;;80.18;11.70;;;;;;;10.44;64.42;96450.69;6213331;23;20025;-87
2024/02/02 02:09:43;;;;;;;21.50;8.63;;;;;;;10.54;64.27;96438.44;6162794;23;20013;-86
2024/02/02 02:12:09;;;;;;;20.92;10.15;;;;;;;10.42;64.24;96436.22;6187288;23;20026;-87
2024/02/02 02:14:34;;;;;;;75.30;13.18;;;;;;;10.29;64.93;96420.91;6186950;23;20017;-87
2024/02/02 02:17:00;;;;;;;254.18;17.10;;;;;;;10.42;64.17;96423.19;6162372;23;20065;-86
2024/02/02 02:19:25;;;;;;;116.68;12.80;;;;;;;10.34;65.00;96427.34;6161940;23;20007;-87
2024/02/02 02:21:51;;;;;;;340.42;18.80;;;;;;;10.46;64.62;96420.16;6187051;23;20001;-86
2024/02/02 02:26:45;;;;;;;62.28;10.15;;;;;;;10.36;64.61;96420.22;6241017;22;20116;-87
2024/02/02 02:29:11;;;;;;;206.57;13.73;;;;;;;10.35;65.08;96417.75;6217411;23;20016;-87
2024/02/02 02:31:36;;;;;;;438.95;24.88;;;;;;;10.51;64.66;96422.31;6217101;23;20008;-87
2024/02/02 02:34:02;;;;;;;378.85;21.08;;;;;;;10.33;65.06;96420.50;6192247;23;20019;-87
2024/02/02 02:39:05;;;;;;;288.33;18.35;;;;;;;10.41;64.75;96405.94;6241776;22;20031;-88
2024/02/02 02:41:31;;;;;;;315.20;18.50;;;;;;;10.36;64.93;96406.41;6217439;23;20040;-87
2024/02/02 02:43:56;;;;;;;191.65;16.08;;;;;;;10.16;65.14;96403.88;6192369;23;20019;-87
2024/02/02 02:46:22;;;;;;;205.40;16.15;;;;;;;10.13;65.30;96411.97;6191823;23;20008;-88
2024/02/02 02:48:47;;;;;;;123.63;14.15;;;;;;;10.03;65.42;96397.38;6216732;23;20053;-87
2024/02/02 02:58:50;;;;;;;224.35;15.95;;;;;;;10.26;65.00;96409.03;6237776;22;20032;-87
2024/02/02 03:01:16;;;;;;;302.20;19.58;;;;;;;10.35;64.93;96396.94;6167603;23;20012;-87
2024/02/02 03:03:45;;;;;;;185.02;17.23;;;;;;;10.22;65.17;96388.66;6192312;23;20000;-87
2024/02/02 03:06:10;;;;;;;335.30;18.38;;;;;;;10.00;65.64;96392.50;6217014;23;20016;-87
2024/02/02 03:08:38;;;;;;;195.52;15.82;;;;;;;10.03;65.45;96398.19;6216383;23;20089;-87
2024/02/02 03:16:14;;;;;;;225.73;17.58;;;;;;;9.96;66.04;96392.78;6212657;23;20024;-87
2024/02/02 03:18:39;;;;;;;170.05;15.40;;;;;;;9.90;66.42;96400.31;6161705;23;20015;-87
2024/02/02 03:21:05;;;;;;;265.58;19.92;;;;;;;9.98;65.96;96384.84;6161498;23;20023;-87
2024/02/02 03:23:32;;;;;;;71.38;13.32;;;;;;;9.97;65.59;96385.78;6187432;23;20009;-87
2024/02/02 03:25:58;;;;;;;182.30;16.70;;;;;;;10.11;65.19;96389.66;6162341;23;20044;-86
2024/02/02 03:33:24;;;;;;;126.07;14.45;;;;;;;10.05;65.66;96375.50;6241857;22;20249;-86
2024/02/02 03:35:49;;;;;;;47.08;13.52;;;;;;;9.81;66.15;96378.63;6191917;23;20026;-86
2024/02/02 03:38:15;;;;;;;36.08;13.00;;;;;;;9.94;65.81;96383.50;6218301;23;20044;-87
2024/02/02 03:40:45;;;;;;;36.63;12.88;;;;;;;10.02;65.47;96383.56;6193586;23;20008;-87
2024/02/02 03:43:11;;;;;;;36.33;13.00;;;;;;;10.12;65.36;96384.31;6219959;23;20036;-87
2024/02/02 03:48:01;;;;;;;55.07;16.97;;;;;;;10.01;65.64;96384.53;6243068;22;20055;-86
2024/02/02 03:50:27;;;;;;;38.78;13.77;;;;;;;10.01;65.62;96387.13;6218915;23;20242;-87
2024/02/02 03:52:54;;;;;;;36.33;13.98;;;;;;;10.09;65.12;96384.63;6218791;23;20012;-87
2024/02/02 03:55:20;;;;;;;35.58;14.38;;;;;;;10.26;64.67;96395.19;6218616;23;20043;-87
2024/02/02 03:57:45;;;;;;;37.83;15.20;;;;;;;10.27;64.81;96387.25;6218777;23;20007;-86
2024/02/02 04:00:11;;;;;;;38.60;14.55;;;;;;;10.10;64.79;96362.06;6194144;23;20015;-86
2024/02/02 04:02:37;;;;;;;41.58;14.75;;;;;;;10.24;64.58;96368.53;6218806;23;20015;-87
2024/02/02 04:05:03;;;;;;;39.53;14.70;;;;;;;10.12;64.85;96373.94;6218677;23;20016;-86
2024/02/02 04:07:30;;;;;;;32.60;13.55;;;;;;;10.05;65.34;96377.25;6218538;23;20004;-87
2024/02/02 04:09:58;;;;;;;32.72;13.00;;;;;;;10.08;64.87;96382.19;6193358;23;20086;-86
2024/02/02 04:14:59;;;;;;;32.92;13.60;;;;;;;10.05;64.79;96388.50;6214189;23;20039;-87
2024/02/02 04:17:24;;;;;;;33.92;13.85;;;;;;;10.09;64.88;96397.63;6187932;23;20012;-87
2024/02/02 04:19:50;;;;;;;28.90;12.82;;;;;;;10.10;64.62;96407.06;6188007;23;20001;-86
2024/02/02 04:22:16;;;;;;;37.90;14.32;;;;;;;10.11;64.15;96394.88;6163711;23;20066;-87
2024/02/02 04:24:43;;;;;;;29.75;13.32;;;;;;;10.20;64.18;96403.59;6180306;23;20017;-87
2024/02/02 04:27:09;;;;;;;31.58;13.57;;;;;;;10.16;64.45;96403.06;6158424;23;20008;-87
2024/02/02 04:29:34;;;;;;;29.77;13.20;;;;;;;10.19;63.90;96402.78;6158585;23;20020;-86
2024/02/02 04:34:28;;;;;;;25.25;12.88;;;;;;;10.24;63.41;96415.31;6187744;23;20016;-87
2024/02/02 04:39:19;;;;;;;32.67;14.05;;;;;;;9.98;64.11;96409.03;6230899;22;20012;-86
2024/02/02 04:41:45;;;;;;;34.78;14.45;;;;;;;9.96;63.91;96402.34;6193120;23;20061;-87
2024/02/02 04:44:13;;;;;;;38.20;15.82;;;;;;;10.01;63.57;96402.72;6218313;23;20012;-87
2024/02/02 04:46:39;;;;;;;39.97;14.98;;;;;;;10.05;63.70;96411.03;6193687;23;20008;-86
2024/02/02 04:49:04;;;;;;;37.95;15.57;;;;;;;9.55;64.84;96399.22;6193021;23;20076;-87
2024/02/02 04:53:55;;;;;;;42.58;16.40;;;;;;;9.58;65.57;96411.94;6243243;22;20052;-87
2024/02/02 04:56:21;;;;;;;38.03;15.63;;;;;;;9.77;64.57;96408.47;6217315;23;20004;-86
2024/02/02 04:58:51;;;;;;;41.47;17.58;;;;;;;9.37;66.53;96420.75;6218480;23;20059;-87
2024/02/02 05:01:19;;;;;;;45.75;18.58;;;;;;;9.34;66.88;96418.41;6194282;23;20011;-86
2024/02/02 05:03:44;;;;;;;46.65;18.48;;;;;;;9.56;65.73;96413.88;6218699;23;20030;-87
2024/02/02 05:08:35;;;;;;;48.25;18.67;;;;;;;9.63;65.64;96416.69;6243237;22;20031;-88
2024/02/02 05:11:00;;;;;;;40.33;17.92;;;;;;;9.55;65.88;96420.00;6218304;23;20016;-87
2024/02/02 05:13:26;;;;;;;38.13;17.50;;;;;;;9.79;65.11;96433.31;6218118;23;20008;-87
2024/02/02 05:15:52;;;;;;;41.47;17.00;;;;;;;9.89;65.03;96435.88;6193350;23;20039;-87
2024/02/02 05:18:17;;;;;;;41.40;17.48;;;;;;;9.98;64.56;96442.00;6217523;23;20042;-87
2024/02/02 05:28:28;;;;;;;59.33;16.92;;;;;;;9.94;65.34;96448.47;6213535;23;20024;-86
2024/02/02 05:30:54;;;;;;;157.80;19.17;;;;;;;9.72;65.21;96440.03;6163002;23;20036;-87
2024/02/02 05:33:19;;;;;;;304.50;24.30;;;;;;;9.85;65.45;96436.31;6163607;23;20063;-87
2024/02/02 05:35:44;;;;;;;300.48;22.25;;;;;;;9.84;65.58;96440.69;6187952;23;20013;-87
2024/02/02 05:38:10;;;;;;;117.20;17.38;;;;;;;9.86;65.41;96441.38;6163218;23;20013;-87
2024/02/02 05:40:39;;;;;;;82.47;17.15;;;;;;;9.86;65.39;96443.97;6163061;23;20027;-87
2024/02/02 05:43:05;;;;;;;110.32;19.63;;;;;;;9.91;65.15;96435.75;6162817;23;20009;-87
2024/02/02 05:45:32;;;;;;;37.85;16.25;;;;;;;10.00;64.68;96449.66;6163159;23;20012;-87
2024/02/02 05:47:57;;;;;;;62.50;18.50;;;;;;;10.05;64.47;96442.25;6187820;23;20095;-86
2024/02/02 05:50:23;;;;;;;36.08;14.82;;;;;;;10.08;64.33;96437.56;6187381;23;20044;-87
2024/02/02 05:52:48;;;;;;;62.22;18.98;;;;;;;10.06;65.04;96452.50;6162908;23;20028;-87
2024/02/02 05:55:14;;;;;;;65.68;19.42;;;;;;;10.36;63.60;96440.22;6162667;23;20008;-87
2024/02/02 05:57:39;;;;;;;58.58;19.85;;;;;;;10.24;64.14;96438.72;6187283;23;20005;-88
2024/02/02 06:00:05;;;;;;;64.15;19.10;;;;;;;10.10;64.55;96440.03;6162959;23;20005;-87
2024/02/02 06:02:31;;;;;;;36.67;17.25;;;;;;;9.85;65.51;96438.91;6227480;22;20077;-88
2024/02/02 06:04:57;;;;;;;58.75;20.45;;;;;;;9.99;65.20;96448.81;6216968;23;20008;-87
2024/02/02 06:07:22;;;;;;;64.38;20.73;;;;;;;9.89;65.63;96446.28;6192625;23;20018;-87
2024/02/02 06:09:47;;;;;;;70.68;23.85;;;;;;;9.86;65.35;96436.19;6192707;23;20012;-87
2024/02/02 06:12:13;;;;;;;65.40;23.13;;;;;;;9.80;65.70;96441.94;6217318;23;20008;-87
2024/02/02 06:14:39;;;;;;;64.95;23.55;;;;;;;9.74;66.17;96438.13;6217472;23;20042;-86
2024/02/02 06:17:06;;;;;;;62.45;23.77;;;;;;;9.69;65.91;96439.50;6192431;23;20074;-86
2024/02/02 06:19:31;;;;;;;61.50;23.63;;;;;;;9.59;66.62;96442.13;6191911;23;20064;-86
2024/02/02 06:21:57;;;;;;;60.08;22.80;;;;;;;9.92;65.51;96450.38;6192345;23;20042;-86
2024/02/02 06:26:49;;;;;;;44.78;21.17;;;;;;;9.88;65.51;96456.81;6240553;22;20021;-86
2024/02/02 06:29:14;;;;;;;48.28;20.67;;;;;;;9.93;65.20;96452.00;6167971;23;20004;-87
2024/02/02 06:31:43;;;;;;;38.13;18.13;;;;;;;10.05;65.01;96461.28;6217256;23;20008;-87
2024/02/02 06:34:11;;;;;;;43.28;20.00;;;;;;;10.11;64.56;96458.09;6217776;23;20034;-86
2024/02/02 06:36:37;;;;;;;34.28;16.65;;;;;;;10.04;64.56;96448.41;6193143;23;20012;-86
2024/02/02 06:41:37;;;;;;;35.63;16.95;;;;;;;10.05;63.99;96448.28;6241884;22;20078;-87
2024/02/02 06:44:03;;;;;;;33.22;16.88;;;;;;;10.17;63.93;96472.31;6216868;23;20016;-87
2024/02/02 06:46:30;;;;;;;36.00;17.92;;;;;;;10.25;63.57;96475.00;6192050;23;20012;-87
2024/02/02 06:48:57;;;;;;;38.78;17.85;;;;;;;10.19;63.40;96467.78;6216834;23;20030;-87
2024/02/02 06:53:58;;;;;;;424.80;27.08;;;;;;;10.07;64.14;96493.16;6183028;23;20032;-87
2024/02/02 06:56:44;;;;;;;508.80;28.83;;;;;;;9.89;64.48;96495.66;6157357;23;20009;-87
2024/02/02 06:59:10;;;;;;;510.15;31.08;;;;;;;9.75;64.89;96483.94;6156884;23;20025;-87
2024/02/02 07:01:36;;;;;;;548.33;28.83;;;;;;;9.41;65.35;96501.78;6156962;23;20040;-86
2024/02/02 07:09:19;;;;;;;103.95;20.80;;;;;;;9.44;65.27;96501.47;6182545;23;20025;-87
2024/02/02 07:11:58;;;;;;;48.33;19.10;;;;;;;9.58;65.02;96510.66;6182038;23;20068;-87
2024/02/02 07:14:49;;;;;;;29.35;15.13;;;;;;;9.56;65.06;96509.97;6182151;23;20005;-86
2024/02/02 07:17:31;;;;;;;37.47;16.67;;;;;;;9.78;63.89;96507.03;6156909;23;20008;-86
2024/02/02 07:19:57;;;;;;;53.83;16.58;;;;;;;9.91;64.03;96514.50;6157065;23;20005;-87
2024/02/02 07:22:38;;;;;;;38.72;16.75;;;;;;;9.83;64.30;96537.00;6157146;23;20008;-88
2024/02/02 07:25:10;;;;;;;34.95;16.23;;;;;;;9.71;64.51;96547.53;6156865;23;20012;-87
2024/02/02 07:27:36;;;;;;;40.92;17.58;;;;;;;9.65;65.17;96539.47;6157009;23;20001;-86
2024/02/02 07:30:04;;;;;;;40.38;17.73;;;;;;;9.81;64.57;96554.50;6181788;23;20009;-87
2024/02/02 07:32:30;;;;;;;43.60;17.50;;;;;;;9.83;64.37;96534.38;6157297;23;20016;-86
2024/02/02 07:37:47;;;;;;;35.42;16.50;;;;;;;9.84;64.59;96543.81;6242578;22;20032;-87
2024/02/02 07:40:55;;;;;;;31.35;15.48;;;;;;;9.96;64.61;96545.31;6235808;23;20054;-87
2024/02/02 07:43:20;;;;;;;31.35;15.38;;;;;;;10.11;64.49;96546.47;6184526;23;20015;-87
2024/02/02 07:45:46;;;;;;;35.55;15.98;;;;;;;10.15;64.47;96552.22;6192042;23;20004;-86
2024/02/02 07:48:11;;;;;;;141.18;20.02;;;;;;;10.14;64.34;96556.59;6192047;23;20091;-86
2024/02/02 07:50:37;;;;;;;307.70;24.33;;;;;;;10.10;63.86;96560.44;6216777;23;20008;-87
2024/02/02 07:53:04;;;;;;;144.93;19.85;;;;;;;10.00;63.74;96570.03;6192431;23;20008;-86
2024/02/02 07:58:05;;;;;;;34.15;17.85;;;;;;;9.86;65.01;96573.91;6242508;22;20024;-87
2024/02/02 08:00:30;;;;;;;28.25;16.48;;;;;;;9.83;65.08;96581.16;6192194;23;20012;-88
2024/02/02 08:02:56;;;;;;;30.35;15.00;;;;;;;9.82;64.61;96569.94;6216604;23;20061;-87
2024/02/02 08:05:21;;;;;;;30.58;15.57;;;;;;;9.88;64.54;96584.97;6191916;23;20012;-87
2024/02/02 08:07:47;;;;;;;27.60;13.18;;;;;;;9.94;64.58;96588.81;6191803;23;20008;-87
2024/02/02 08:10:15;;;;;;;25.40;13.63;;;;;;;9.99;64.66;96589.19;6232616;22;20020;-87
2024/02/02 08:12:44;;;;;;;29.98;13.55;;;;;;;10.07;64.59;96586.72;6242318;23;20011;-88
2024/02/02 08:15:09;;;;;;;28.73;14.00;;;;;;;10.05;64.41;96580.84;6192123;23;20012;-87
2024/02/02 08:22:48;;;;;;;24.00;13.48;;;;;;;10.05;64.87;96560.06;6212278;23;20013;-87
2024/02/02 08:25:14;;;;;;;27.40;14.35;;;;;;;10.11;64.43;96575.09;6187713;23;20096;-87
2024/02/02 08:27:42;;;;;;;24.50;14.07;;;;;;;10.21;64.90;96585.44;6188189;23;20083;-87
2024/02/02 08:32:35;;;;;;;24.58;13.32;;;;;;;10.35;64.69;96569.41;6244137;22;20047;-87
2024/02/02 08:35:01;;;;;;;22.45;12.93;;;;;;;10.35;64.58;96584.19;6218874;23;20035;-87
2024/02/02 08:37:29;;;;;;;22.70;11.98;;;;;;;10.35;63.62;96590.22;6193596;23;20034;-87
2024/02/02 08:39:57;;;;;;;20.70;11.80;;;;;;;10.45;64.40;96595.41;6218346;23;20008;-86
2024/02/02 08:42:23;;;;;;;18.95;11.50;;;;;;;10.34;64.28;96593.78;6218450;23;20027;-87
2024/02/02 08:49:53;;;;;;;18.00;11.07;;;;;;;10.36;63.61;96591.88;6243905;22;20020;-87
2024/02/02 08:52:33;;;;;;;16.60;10.15;;;;;;;10.20;63.81;96590.78;6194242;23;20022;-87
2024/02/02 08:55:07;;;;;;;16.90;10.52;;;;;;;10.51;63.45;96587.03;6218380;23;20078;-87
2024/02/02 08:57:50;;;;;;;17.63;11.02;;;;;;;10.52;63.56;96583.44;6218366;23;20017;-87
2024/02/02 09:05:24;;;;;;;19.67;12.05;;;;;;;11.05;63.46;96587.16;6238423;22;20028;-88
2024/02/02 09:10:31;;;;;;;26.52;13.73;;;;;;;11.34;63.10;96586.94;6241029;22;20106;-87
2024/02/02 09:13:01;;;;;;;18.52;11.85;;;;;;;11.32;63.35;96578.47;6244547;23;20091;-86
2024/02/02 09:15:34;;;;;;;26.25;13.85;;;;;;;11.37;63.30;96579.81;6217675;23;20004;-86
2024/02/02 09:18:00;;;;;;;23.60;14.25;;;;;;;11.33;63.04;96579.31;6217512;23;20057;-86
2024/02/02 09:23:18;;;;;;;208.07;17.17;;;;;;;11.24;63.83;96588.81;6237874;22;20024;-86
2024/02/02 09:25:47;;;;;;;324.15;22.30;;;;;;;11.40;64.02;96602.97;6242486;23;20004;-87
2024/02/02 09:28:24;;;;;;;215.27;20.08;;;;;;;11.28;63.70;96600.56;6218124;23;20012;-87
2024/02/02 09:31:00;;;;;;;256.40;19.20;;;;;;;11.25;63.68;96600.03;6217956;23;20016;-86
2024/02/02 09:33:32;;;;;;;170.15;18.05;;;;;;;11.31;63.56;96592.47;6217969;23;20079;-87
2024/02/02 09:35:59;;;;;;;224.40;19.58;;;;;;;11.39;63.27;96598.72;6217879;23;20082;-87
2024/02/02 09:43:31;;;;;;;336.65;22.70;;;;;;;11.16;62.81;96612.16;6241886;22;20059;-87
2024/02/02 09:46:24;;;;;;;395.08;25.67;;;;;;;11.04;62.65;96605.50;6217830;23;20012;-87
2024/02/02 09:49:13;;;;;;;410.42;25.05;;;;;;;10.64;64.67;96617.09;6217406;23;20004;-87
2024/02/02 09:52:06;;;;;;;234.27;22.23;;;;;;;10.59;64.25;96608.91;6216384;23;20115;-87
2024/02/02 09:54:49;;;;;;;307.05;25.50;;;;;;;10.45;65.28;96610.16;6217634;23;20004;-87
2024/02/02 09:57:44;;;;;;;412.27;27.88;;;;;;;10.30;66.29;96612.38;6217578;23;20019;-86
2024/02/02 10:00:19;;;;;;;225.77;22.73;;;;;;;10.67;64.66;96616.81;6239066;23;20008;-86
2024/02/02 10:08:39;;;;;;;83.68;21.17;;;;;;;10.41;65.77;96616.63;6242763;22;20094;-87
2024/02/02 10:11:40;;;;;;;115.72;21.08;;;;;;;10.58;65.37;96608.06;6151922;23;20075;-87
2024/02/02 10:14:45;;;;;;;178.18;21.45;;;;;;;10.59;65.39;96604.50;6217804;23;20035;-86
2024/02/02 10:17:38;;;;;;;31.65;16.30;;;;;;;10.75;65.02;96596.09;6217376;23;20011;-86
2024/02/02 10:20:22;;;;;;;39.95;17.77;;;;;;;11.01;63.83;96590.22;6217116;23;20004;-86
2024/02/02 10:23:11;;;;;;;29.40;16.50;;;;;;;10.39;65.56;96588.16;6217473;23;20035;-87
2024/02/02 10:25:44;;;;;;;21.67;13.63;;;;;;;10.90;64.21;96593.81;6217442;23;20008;-87
2024/02/02 10:41:24;;;;;;;23.67;14.43;;;;;;;10.56;64.06;96573.56;6235772;22;20020;-85
2024/02/02 10:44:26;;;;;;;23.98;14.95;;;;;;;10.51;64.39;96579.22;6217310;23;20008;-86
2024/02/02 10:47:31;;;;;;;23.20;13.90;;;;;;;10.63;64.51;96579.03;6216908;23;20027;-86
2024/02/02 10:50:02;;;;;;;25.17;14.38;;;;;;;10.92;64.35;96577.06;6182274;23;20004;-87
2024/02/02 10:53:00;;;;;;;23.67;15.25;;;;;;;11.06;63.37;96567.97;6218275;23;20058;-86
2024/02/02 10:58:26;;;;;;;24.33;14.60;;;;;;;10.88;64.22;96567.94;6240353;22;20024;-86
2024/02/02 11:01:05;;;;;;;;;;;;;;;10.66;65.32;96568.31;6217371;23;20008;-86
2024/02/02 11:03:39;;;;;;;21.00;12.98;;;;;;;10.83;64.19;96557.13;6242684;23;19907;-87
2024/02/02 11:06:25;;;;;;;19.38;12.40;;;;;;;10.98;63.65;96569.66;6216871;23;20007;-86
2024/02/02 11:09:33;;;;;;;23.20;12.95;;;;;;;11.07;63.41;96564.38;6217471;23;20039;-87
2024/02/02 11:17:33;;;;;;;13.23;9.07;;;;;;;11.17;62.38;96573.91;6240258;22;20020;-88
2024/02/02 11:20:17;;;;;;;23.90;14.02;;;;;;;11.31;63.68;96576.84;6216690;23;20012;-87
2024/02/02 11:23:28;;;;;;;27.30;14.43;;;;;;;11.39;63.65;96567.47;6217006;23;20008;-86
2024/02/02 11:26:06;;;;;;;25.63;14.13;;;;;;;11.55;63.85;96562.38;6172149;23;20070;-86
2024/02/02 11:28:41;;;;;;;28.27;15.95;;;;;;;11.51;63.86;96571.47;6217473;23;20065;-86
2024/02/02 11:31:45;;;;;;;29.95;16.17;;;;;;;11.54;63.80;96568.56;6217099;23;20065;-87
2024/02/02 11:44:36;;;;;;;24.20;14.90;;;;;;;11.74;63.06;96543.13;6242050;22;20020;-86
2024/02/02 11:47:04;;;;;;;26.07;15.77;;;;;;;11.60;63.47;96533.28;6217041;23;20000;-86
2024/02/02 11:49:32;;;;;;;25.73;15.95;;;;;;;11.44;64.25;96549.56;6216501;23;20250;-87
2024/02/02 11:52:05;;;;;;;23.48;15.48;;;;;;;11.54;63.28;96542.53;6216785;23;20071;-87
2024/02/02 11:59:52;;;;;;;20.50;13.80;;;;;;;11.66;62.49;96530.06;6242480;22;20031;-85
2024/02/02 12:02:54;;;;;;;22.30;14.48;;;;;;;11.45;63.58;96539.00;6219005;23;20012;-85
2024/02/02 12:05:24;;;;;;;21.58;14.20;;;;;;;11.50;63.49;96525.56;6218771;23;20008;-85
2024/02/02 12:07:56;;;;;;;;;;;;;;;11.32;63.19;96525.56;6219703;23;20035;-86
2024/02/02 12:10:24;;;;;;;23.92;14.55;;;;;;;11.45;63.06;96505.16;6243881;23;19943;-87
2024/02/02 12:15:27;;;;;;;18.27;12.30;;;;;;;11.47;63.81;96502.41;6241635;22;20028;-86
2024/02/02 12:17:53;;;;;;;18.08;12.93;;;;;;;11.80;62.67;96490.38;6193208;23;20008;-86
2024/02/02 12:20:21;;;;;;;16.85;11.95;;;;;;;11.99;62.33;96492.00;6218465;23;20004;-87
2024/02/02 12:25:27;;;;;;;13.48;10.50;;;;;;;11.84;62.01;96501.34;6242318;22;20028;-86
2024/02/02 12:27:53;;;;;;;13.52;10.05;;;;;;;11.84;63.20;96498.72;6218327;23;20108;-85
2024/02/02 12:30:18;;;;;;;15.38;10.25;;;;;;;12.29;62.35;96501.13;6218276;23;20004;-86
2024/02/02 12:32:55;;;;;;;11.43;9.00;;;;;;;12.69;61.74;96499.63;6218708;23;20047;-85
2024/02/02 12:35:22;;;;;;;9.68;6.93;;;;;;;12.88;60.23;96485.47;6218157;23;20059;-86
2024/02/02 12:37:48;;;;;;;8.43;6.28;;;;;;;12.85;59.05;96493.66;6218643;23;20026;-86
2024/02/02 12:40:15;;;;;;;6.72;5.50;;;;;;;13.06;58.37;96508.84;6218578;23;20054;-87
2024/02/02 12:45:12;;;;;;;3.72;2.85;;;;;;;13.44;54.85;96492.72;6186982;23;20017;-86
2024/02/02 12:47:41;;;;;;;2.30;1.90;;;;;;;13.45;53.45;96499.59;6187996;23;20001;-86
2024/02/02 12:50:18;;;;;;;1.90;1.70;;;;;;;13.39;53.03;96482.78;6162840;23;20013;-87
2024/02/02 12:55:18;;;;;;;2.13;1.83;;;;;;;13.93;52.09;96484.81;6224403;22;20031;-86
2024/02/02 12:57:44;;;;;;;2.00;1.70;;;;;;;13.98;51.97;96481.72;6218210;23;20008;-86
2024/02/02 13:00:16;;;;;;;1.80;1.60;;;;;;;13.59;52.16;96482.44;6218071;23;20007;-86
2024/02/02 13:02:45;;;;;;;2.03;1.75;;;;;;;13.89;51.26;96480.91;6218006;23;20027;-86
2024/02/02 13:07:48;;;;;;;2.20;2.00;;;;;;;14.02;51.27;96470.75;6187406;23;20083;-86
2024/02/02 13:10:13;;;;;;;6.93;5.60;;;;;;;14.39;54.82;96482.41;6193682;23;20020;-86
2024/02/02 13:12:47;;;;;;;9.88;6.65;;;;;;;14.06;55.36;96474.66;6242827;23;20080;-86
2024/02/02 13:15:21;;;;;;;9.32;6.32;;;;;;;13.92;56.19;96470.13;6193410;23;20012;-86
2024/02/02 13:25:42;;;;;;;7.75;6.90;;;;;;;13.80;56.36;96458.38;6241000;22;20028;-86
2024/02/02 13:35:53;;;;;;;7.68;6.43;;;;;;;13.55;57.34;96466.25;6239952;22;20016;-85
2024/02/02 13:38:21;;;;;;;7.57;5.97;;;;;;;13.46;57.11;96475.06;6242789;23;20012;-85
2024/02/02 13:40:51;;;;;;;9.27;6.05;;;;;;;13.40;57.52;96470.50;6193073;23;20083;-85
2024/02/02 13:43:18;;;;;;;7.40;5.75;;;;;;;13.74;56.49;96457.25;6217421;23;20043;-86
2024/02/02 13:45:44;;;;;;;5.45;4.32;;;;;;;14.06;54.94;96451.09;6192954;23;20158;-85
2024/02/02 13:53:13;;;;;;;6.22;4.75;;;;;;;14.12;53.77;96446.19;6240900;22;20299;-86
2024/02/02 13:55:41;;;;;;;6.25;4.95;;;;;;;14.10;53.65;96441.13;6216840;23;20081;-85
2024/02/02 13:58:08;;;;;;;6.05;4.60;;;;;;;14.07;54.42;96446.72;6217444;23;20084;-86
2024/02/02 14:05:48;;;;;;;9.15;6.93;;;;;;;14.03;55.93;96448.84;6235854;22;20027;-85
2024/02/02 14:08:14;;;;;;;8.23;6.72;;;;;;;14.00;55.40;96458.81;6218013;23;20012;-86
2024/02/02 14:10:48;;;;;;;10.90;7.88;;;;;;;13.86;55.95;96455.13;6220801;23;20091;-86
2024/02/02 14:13:20;;;;;;;8.82;7.18;;;;;;;13.72;56.76;96463.63;6193275;23;20051;-86
2024/02/02 14:15:48;;;;;;;8.93;7.10;;;;;;;13.85;55.93;96456.09;6217481;23;20004;-85
2024/02/02 14:18:13;;;;;;;9.18;7.55;;;;;;;13.63;56.42;96454.97;6222734;22;20012;-86
2024/02/02 14:20:40;;;;;;;9.98;7.45;;;;;;;13.51;57.43;96464.97;6192093;23;20051;-86
2024/02/02 14:28:17;;;;;;;8.85;6.47;;;;;;;13.29;56.94;96455.97;6254103;22;20020;-85
2024/02/02 14:30:44;;;;;;;9.82;7.50;;;;;;;13.26;57.38;96464.94;6227457;23;20035;-85
2024/02/02 14:33:13;;;;;;;8.57;7.03;;;;;;;13.37;56.37;96470.88;6227450;23;20150;-85
2024/02/02 14:35:39;;;;;;;9.02;6.60;;;;;;;13.14;57.07;96468.88;6204480;22;20024;-86
2024/02/02 14:38:05;;;;;;;8.75;6.95;;;;;;;13.13;57.04;96477.66;6171899;23;20008;-85
2024/02/02 14:40:31;;;;;;;8.63;6.80;;;;;;;13.20;56.53;96470.81;6196610;23;20035;-85
2024/02/02 14:42:57;;;;;;;8.90;7.28;;;;;;;13.02;57.08;96472.75;6196264;22;20005;-86
2024/02/02 14:45:23;;;;;;;9.85;7.03;;;;;;;13.04;57.15;96465.56;6226949;23;20015;-85
2024/02/02 14:47:49;;;;;;;10.63;6.82;;;;;;;13.03;57.32;96470.00;6224513;23;20012;-86
2024/02/02 14:50:17;;;;;;;9.75;7.00;;;;;;;13.00;57.70;96465.09;6217350;23;20028;-87
2024/02/02 15:05:37;;;;;;;10.77;7.22;;;;;;;12.70;58.60;96469.13;6242034;22;20023;-86
2024/02/02 15:08:03;;;;;;;10.40;7.80;;;;;;;12.84;58.17;96462.47;6218070;23;20066;-86
2024/02/02 15:10:29;;;;;;;9.88;7.40;;;;;;;12.70;58.13;96459.50;6216493;23;20008;-86
2024/02/02 15:20:30;;;;;;;8.43;7.10;;;;;;;12.79;57.96;96457.72;6240680;22;20012;-88
2024/02/02 15:22:56;;;;;;;9.52;6.85;;;;;;;12.86;58.07;96461.31;6192503;23;20012;-87
2024/02/02 15:25:21;;;;;;;9.05;7.57;;;;;;;12.85;57.91;96464.09;6217632;23;20007;-87
2024/02/02 15:27:49;;;;;;;9.32;7.45;;;;;;;12.80;57.98;96461.16;6217893;23;20012;-86
2024/02/02 15:30:15;;;;;;;10.25;7.70;;;;;;;12.76;58.21;96467.69;6192465;23;20008;-86
2024/02/02 15:32:40;;;;;;;8.85;7.05;;;;;;;12.72;58.34;96464.56;6199069;23;20004;-87